createdAt,value
2022-12-22T00:00:35.631Z,33.20
2022-12-22T00:03:21.069Z,33.30
2022-12-22T00:06:06.281Z,33.47
2022-12-22T00:08:51.378Z,33.14
2022-12-22T00:11:36.259Z,33.32
2022-12-22T00:14:21.799Z,33.28
2022-12-22T00:17:07.255Z,33.14
2022-12-22T00:19:55.253Z,33.14
2022-12-22T00:22:44.184Z,32.92
2022-12-22T00:25:35.913Z,33.26
2022-12-22T00:28:30.101Z,33.00
2022-12-22T00:31:16.147Z,33.16
2022-12-22T00:34:01.516Z,33.02
2022-12-22T00:36:47.697Z,33.27
2022-12-22T00:39:32.973Z,33.05
2022-12-22T00:42:18.030Z,33.01
2022-12-22T00:45:03.409Z,33.07
2022-12-22T00:47:50.177Z,33.14
2022-12-22T00:50:36.392Z,33.02
2022-12-22T00:53:22.767Z,32.96
2022-12-22T00:56:08.469Z,33.06
2022-12-22T01:01:17.827Z,32.91
2022-12-22T01:04:03.159Z,32.82
2022-12-22T01:06:50.997Z,32.79
2022-12-22T01:09:36.805Z,32.94
2022-12-22T01:12:29.218Z,32.94
2022-12-22T01:15:14.459Z,32.97
2022-12-22T01:17:59.614Z,32.98
2022-12-22T01:20:45.332Z,32.82
2022-12-22T01:23:30.630Z,32.62
2022-12-22T01:26:15.791Z,33.12
2022-12-22T01:29:00.989Z,32.73
2022-12-22T01:31:48.767Z,32.90
2022-12-22T01:34:34.757Z,32.74
2022-12-22T01:37:20.101Z,32.74
2022-12-22T01:40:05.090Z,32.92
2022-12-22T01:42:52.774Z,32.87
2022-12-22T01:45:42.779Z,32.82
2022-12-22T01:48:39.432Z,32.58
2022-12-22T01:51:47.147Z,32.53
2022-12-22T01:54:33.415Z,32.43
2022-12-22T01:57:19.914Z,32.70
2022-12-22T02:00:05.196Z,32.70
2022-12-22T02:02:57.240Z,32.56
2022-12-22T02:05:42.578Z,32.46
2022-12-22T02:08:33.698Z,32.39
2022-12-22T02:11:54.251Z,32.39
2022-12-22T02:14:54.798Z,32.40
2022-12-22T02:18:17.895Z,32.44
2022-12-22T02:21:07.053Z,32.37
2022-12-22T02:23:52.438Z,32.26
2022-12-22T02:26:48.294Z,32.44
2022-12-22T02:29:37.145Z,32.43
2022-12-22T02:32:23.537Z,32.41
2022-12-22T02:35:08.800Z,32.33
2022-12-22T02:38:25.044Z,32.52
2022-12-22T02:41:25.504Z,32.51
2022-12-22T02:44:56.274Z,32.25
2022-12-22T02:47:49.394Z,32.11
2022-12-22T02:51:29.155Z,32.22
2022-12-22T02:54:15.731Z,32.25
2022-12-22T02:57:01.726Z,32.42
2022-12-22T02:59:46.973Z,32.39
2022-12-22T03:02:32.654Z,32.60
2022-12-22T03:05:18.327Z,32.51
2022-12-22T03:08:08.192Z,32.33
2022-12-22T03:10:54.130Z,31.99
2022-12-22T03:13:39.679Z,32.16
2022-12-22T03:16:24.984Z,31.90
2022-12-22T03:19:10.137Z,31.83
2022-12-22T03:21:55.605Z,32.01
2022-12-22T03:24:40.833Z,31.81
2022-12-22T03:27:07.426Z,31.81
2022-12-22T03:29:33.915Z,31.95
2022-12-22T03:32:00.675Z,31.83
2022-12-22T03:34:27.250Z,31.63
2022-12-22T03:36:53.875Z,31.42
2022-12-22T03:39:20.397Z,31.73
2022-12-22T03:42:05.259Z,31.55
2022-12-22T03:44:50.579Z,31.69
2022-12-22T03:47:17.212Z,31.45
2022-12-22T03:49:43.763Z,31.48
2022-12-22T03:52:10.381Z,31.69
2022-12-22T03:54:36.890Z,31.77
2022-12-22T03:57:04.535Z,32.06
2022-12-22T03:59:31.713Z,32.29
2022-12-22T04:01:58.489Z,32.21
2022-12-22T04:04:26.735Z,32.33
2022-12-22T04:06:54.014Z,32.79
2022-12-22T04:09:22.184Z,32.93
2022-12-22T04:12:12.085Z,33.24
2022-12-22T04:14:38.774Z,33.13
2022-12-22T04:17:06.407Z,33.04
2022-12-22T04:19:33.465Z,33.31
2022-12-22T04:22:00.334Z,33.24
2022-12-22T04:24:27.025Z,33.02
2022-12-22T04:26:53.643Z,33.16
2022-12-22T04:29:20.189Z,33.40
2022-12-22T04:31:46.744Z,33.22
2022-12-22T04:34:13.420Z,33.27
2022-12-22T04:36:39.997Z,33.24
2022-12-22T04:39:06.576Z,33.29
2022-12-22T04:41:33.511Z,33.41
2022-12-22T04:44:00.217Z,33.57
2022-12-22T04:46:26.843Z,33.19
2022-12-22T04:48:59.554Z,33.49
2022-12-22T04:51:27.507Z,33.68
2022-12-22T04:53:54.038Z,33.96
2022-12-22T04:56:20.627Z,34.16
2022-12-22T04:58:47.181Z,34.07
2022-12-22T05:01:20.096Z,34.42
2022-12-22T05:03:47.494Z,34.08
2022-12-22T05:06:14.452Z,34.06
2022-12-22T05:08:41.169Z,34.39
2022-12-22T05:11:07.812Z,34.35
2022-12-22T05:13:34.955Z,34.84
2022-12-22T05:16:06.684Z,35.06
2022-12-22T05:18:34.399Z,34.92
2022-12-22T05:21:07.274Z,35.10
2022-12-22T05:23:33.949Z,34.97
2022-12-22T05:26:00.606Z,34.99
2022-12-22T05:30:55.753Z,35.29
2022-12-22T05:33:22.632Z,35.54
2022-12-22T05:35:49.252Z,35.46
2022-12-22T05:38:15.871Z,35.18
2022-12-22T05:40:42.386Z,35.86
2022-12-22T05:43:10.137Z,36.28
2022-12-22T05:45:36.797Z,36.71
2022-12-22T05:48:03.568Z,36.82
2022-12-22T05:50:31.582Z,36.65
2022-12-22T05:53:04.761Z,36.38
2022-12-22T05:55:31.467Z,36.05
2022-12-22T05:58:01.776Z,35.96
2022-12-22T06:00:30.536Z,35.79
2022-12-22T06:02:57.641Z,35.84
2022-12-22T06:05:24.580Z,35.67
2022-12-22T06:07:51.201Z,35.42
2022-12-22T06:10:18.141Z,35.33
2022-12-22T06:12:44.655Z,35.05
2022-12-22T06:15:13.964Z,35.04
2022-12-22T06:17:44.779Z,35.12
2022-12-22T06:20:13.312Z,35.07
2022-12-22T06:22:39.968Z,35.22
2022-12-22T06:25:06.838Z,34.96
2022-12-22T06:27:33.404Z,35.13
2022-12-22T06:30:00.109Z,34.78
2022-12-22T06:32:26.726Z,34.96
2022-12-22T06:34:53.280Z,34.64
2022-12-22T06:37:19.869Z,34.70
2022-12-22T06:39:46.464Z,34.62
2022-12-22T06:42:31.713Z,34.67
2022-12-22T06:44:58.407Z,34.36
2022-12-22T06:47:24.932Z,34.57
2022-12-22T06:49:52.259Z,34.58
2022-12-22T06:52:18.789Z,34.34
2022-12-22T06:54:45.404Z,34.52
2022-12-22T06:57:11.979Z,34.45
2022-12-22T06:59:38.562Z,35.17
2022-12-22T07:02:05.119Z,36.60
2022-12-22T07:04:32.237Z,37.08
2022-12-22T07:06:58.778Z,37.51
2022-12-22T07:09:25.363Z,37.44
2022-12-22T07:11:51.979Z,37.08
2022-12-22T07:14:18.586Z,36.88
2022-12-22T07:16:46.975Z,36.88
2022-12-22T07:19:14.508Z,36.33
2022-12-22T07:21:41.005Z,36.57
2022-12-22T07:24:07.990Z,36.14
2022-12-22T07:26:34.656Z,36.31
2022-12-22T07:29:01.179Z,36.31
2022-12-22T07:31:27.826Z,35.95
2022-12-22T07:33:54.519Z,35.85
2022-12-22T07:36:21.126Z,35.83
2022-12-22T07:38:52.644Z,35.88
2022-12-22T07:41:39.170Z,35.67
2022-12-22T07:44:06.877Z,35.61
2022-12-22T07:46:38.411Z,35.42
2022-12-22T07:49:25.762Z,35.41
2022-12-22T07:51:52.935Z,35.33
2022-12-22T07:54:19.430Z,35.18
2022-12-22T07:56:47.144Z,34.89
2022-12-22T07:59:13.949Z,35.09
2022-12-22T08:01:41.649Z,34.95
2022-12-22T08:04:12.634Z,34.99
2022-12-22T08:06:39.530Z,34.99
2022-12-22T08:09:09.629Z,34.95
2022-12-22T08:11:36.241Z,34.69
2022-12-22T08:14:02.778Z,34.53
2022-12-22T08:16:29.802Z,34.55
2022-12-22T08:18:56.753Z,34.11
2022-12-22T08:21:23.764Z,34.61
2022-12-22T08:23:50.263Z,34.27
2022-12-22T08:26:36.734Z,34.52
2022-12-22T08:29:08.677Z,34.76
2022-12-22T08:31:35.657Z,35.07
2022-12-22T08:34:06.010Z,35.57
2022-12-22T08:36:37.623Z,35.73
2022-12-22T08:39:04.702Z,35.95
2022-12-22T08:41:50.110Z,36.35
2022-12-22T08:44:22.249Z,36.56
2022-12-22T08:46:50.231Z,36.80
2022-12-22T08:49:17.503Z,37.35
2022-12-22T08:51:44.987Z,37.62
2022-12-22T08:54:14.981Z,37.58
2022-12-22T08:56:42.453Z,37.60
2022-12-22T08:59:09.257Z,37.81
2022-12-22T09:01:38.570Z,38.06
2022-12-22T09:04:09.344Z,38.21
2022-12-22T09:06:40.852Z,38.12
2022-12-22T09:09:10.366Z,38.57
2022-12-22T09:11:38.469Z,38.57
2022-12-22T09:14:06.088Z,38.56
2022-12-22T09:16:33.713Z,38.85
2022-12-22T09:19:01.571Z,38.98
2022-12-22T09:21:28.713Z,38.78
2022-12-22T09:23:56.612Z,38.88
2022-12-22T09:26:25.224Z,39.08
2022-12-22T09:28:52.702Z,39.15
2022-12-22T09:31:21.161Z,38.98
2022-12-22T09:33:48.125Z,39.03
2022-12-22T09:36:18.118Z,39.38
2022-12-22T09:38:44.778Z,39.11
2022-12-22T09:41:32.185Z,39.49
2022-12-22T09:44:06.759Z,39.07
2022-12-22T09:46:36.431Z,39.63
2022-12-22T09:49:06.112Z,39.44
2022-12-22T09:51:41.955Z,39.26
2022-12-22T09:54:11.157Z,39.67
2022-12-22T09:56:38.009Z,39.60
2022-12-22T09:59:16.529Z,39.18
2022-12-22T10:02:10.524Z,37.99
2022-12-22T10:04:56.234Z,37.15
2022-12-22T10:07:31.115Z,36.25
2022-12-22T10:10:04.716Z,36.52
2022-12-22T10:12:37.365Z,36.34
2022-12-22T10:15:04.366Z,36.22
2022-12-22T10:17:33.281Z,36.09
2022-12-22T10:20:27.534Z,35.92
2022-12-22T10:23:02.150Z,36.08
2022-12-22T10:26:00.006Z,35.97
2022-12-22T10:28:22.785Z,36.05
2022-12-22T10:30:49.761Z,35.74
2022-12-22T10:33:18.416Z,35.87
2022-12-22T10:35:53.335Z,35.85
2022-12-22T10:38:32.961Z,36.12
2022-12-22T10:41:22.968Z,35.99
2022-12-22T10:43:59.575Z,35.99
2022-12-22T10:46:49.049Z,35.92
2022-12-22T10:52:21.242Z,35.70
2022-12-22T10:54:50.469Z,36.07
2022-12-22T10:57:16.915Z,35.76
2022-12-22T10:59:52.862Z,35.75
2022-12-22T11:02:28.022Z,35.68
2022-12-22T11:05:01.394Z,35.54
2022-12-22T11:07:34.212Z,35.24
2022-12-22T11:10:01.254Z,35.55
2022-12-22T11:12:37.022Z,35.25
2022-12-22T11:15:24.676Z,35.54
2022-12-22T11:18:06.518Z,35.49
2022-12-22T11:20:54.485Z,35.47
2022-12-22T11:23:44.265Z,35.38
2022-12-22T11:26:19.973Z,35.52
2022-12-22T11:29:03.843Z,35.61
2022-12-22T11:31:53.877Z,35.67
2022-12-22T11:34:43.017Z,35.83
2022-12-22T11:37:48.561Z,35.42
2022-12-22T11:40:28.400Z,35.69
2022-12-22T11:43:35.053Z,35.62
2022-12-22T11:46:19.781Z,35.35
2022-12-22T11:48:49.138Z,35.48
2022-12-22T11:51:39.063Z,35.43
2022-12-22T11:54:28.433Z,34.99
2022-12-22T11:57:05.274Z,34.98
2022-12-22T12:00:08.880Z,34.92
2022-12-22T12:03:11.871Z,35.12
2022-12-22T12:06:20.261Z,35.23
2022-12-22T12:09:24.020Z,35.30
2022-12-22T12:12:22.198Z,35.33
2022-12-22T12:15:10.057Z,35.20
2022-12-22T12:17:54.688Z,35.22
2022-12-22T12:20:29.928Z,35.08
2022-12-22T12:23:08.912Z,34.99
2022-12-22T12:26:02.813Z,34.98
2022-12-22T12:28:47.489Z,34.94
2022-12-22T12:31:20.158Z,34.76
2022-12-22T12:36:39.453Z,34.73
2022-12-22T12:39:08.043Z,35.06
2022-12-22T12:42:11.059Z,34.91
2022-12-22T12:44:38.659Z,34.42
2022-12-22T12:47:07.469Z,34.66
2022-12-22T12:49:34.267Z,34.64
2022-12-22T12:52:04.437Z,34.47
2022-12-22T12:54:39.577Z,34.83
2022-12-22T12:57:45.407Z,34.63
2022-12-22T13:00:34.061Z,34.87
2022-12-22T13:03:02.195Z,34.72
2022-12-22T13:05:33.002Z,34.88
2022-12-22T13:08:15.444Z,34.71
2022-12-22T13:10:41.954Z,34.97
2022-12-22T13:13:23.769Z,34.78
2022-12-22T13:15:59.648Z,34.73
2022-12-22T13:18:26.629Z,34.87
2022-12-22T13:21:26.081Z,35.04
2022-12-22T13:24:23.457Z,35.24
2022-12-22T13:26:44.623Z,35.21
2022-12-22T13:29:22.993Z,34.92
2022-12-22T13:32:15.588Z,34.61
2022-12-22T13:35:28.542Z,34.41
2022-12-22T13:37:40.546Z,34.43
2022-12-22T13:40:20.478Z,34.68
2022-12-22T13:45:00.885Z,35.15
2022-12-22T13:47:29.620Z,35.45
2022-12-22T13:50:11.451Z,35.74
2022-12-22T13:52:40.440Z,35.94
2022-12-22T13:55:14.494Z,36.14
2022-12-22T13:57:41.521Z,36.22
2022-12-22T14:00:18.970Z,36.52
2022-12-22T14:02:46.117Z,36.39
2022-12-22T14:05:15.466Z,36.64
2022-12-22T14:08:22.324Z,37.00
2022-12-22T14:10:49.689Z,36.94
2022-12-22T14:13:19.247Z,37.09
2022-12-22T14:15:46.725Z,37.31
2022-12-22T14:18:21.213Z,37.33
2022-12-22T14:20:48.721Z,37.55
2022-12-22T14:23:15.212Z,37.36
2022-12-22T14:25:44.232Z,37.26
2022-12-22T14:28:26.140Z,36.95
2022-12-22T14:30:56.995Z,37.29
2022-12-22T14:33:23.525Z,37.87
2022-12-22T14:35:50.522Z,38.26
2022-12-22T14:38:25.047Z,38.16
2022-12-22T14:40:57.224Z,38.52
2022-12-22T14:43:30.310Z,38.76
2022-12-22T14:46:08.826Z,38.64
2022-12-22T14:48:44.949Z,38.75
2022-12-22T14:51:17.415Z,38.92
2022-12-22T14:53:49.850Z,38.99
2022-12-22T14:56:17.830Z,39.04
2022-12-22T14:58:46.656Z,39.13
2022-12-22T15:01:16.190Z,39.21
2022-12-22T15:03:43.571Z,38.99
2022-12-22T15:06:28.679Z,38.61
2022-12-22T15:09:13.245Z,38.58
2022-12-22T15:11:49.237Z,38.31
2022-12-22T15:14:21.961Z,38.31
2022-12-22T15:16:48.941Z,38.12
2022-12-22T15:19:18.389Z,37.84
2022-12-22T15:21:45.068Z,37.25
2022-12-22T15:24:13.278Z,37.05
2022-12-22T15:26:39.831Z,36.94
2022-12-22T15:29:06.404Z,36.88
2022-12-22T15:31:33.099Z,36.91
2022-12-22T15:34:02.538Z,36.80
2022-12-22T15:36:32.068Z,36.31
2022-12-22T15:38:58.558Z,36.88
2022-12-22T15:41:25.143Z,36.77
2022-12-22T15:43:57.875Z,36.95
2022-12-22T15:46:25.261Z,36.84
2022-12-22T15:48:52.879Z,36.88
2022-12-22T15:51:25.628Z,37.32
2022-12-22T15:53:54.246Z,37.01
2022-12-22T15:56:23.817Z,36.94
2022-12-22T15:58:50.579Z,36.78
2022-12-22T16:01:18.370Z,37.01
2022-12-22T16:03:45.122Z,36.60
2022-12-22T16:06:16.764Z,37.18
2022-12-22T16:08:49.384Z,37.03
2022-12-22T16:11:17.291Z,37.43
2022-12-22T16:13:44.667Z,36.83
2022-12-22T16:16:12.308Z,36.86
2022-12-22T16:18:38.988Z,36.56
2022-12-22T16:21:17.004Z,36.23
2022-12-22T16:23:47.859Z,36.11
2022-12-22T16:26:20.849Z,36.08
2022-12-22T16:28:47.980Z,35.90
2022-12-22T16:31:25.638Z,35.61
2022-12-22T16:33:52.928Z,35.47
2022-12-22T16:36:19.580Z,35.30
2022-12-22T16:38:47.561Z,35.30
2022-12-22T16:41:25.547Z,35.58
2022-12-22T16:46:39.212Z,35.14
2022-12-22T16:49:09.014Z,35.01
2022-12-22T16:51:40.072Z,35.27
2022-12-22T16:54:06.664Z,35.49
2022-12-22T16:56:34.793Z,35.28
2022-12-22T16:59:04.443Z,35.06
2022-12-22T17:01:39.992Z,35.34
2022-12-22T17:04:12.122Z,34.89
2022-12-22T17:06:39.922Z,35.00
2022-12-22T17:09:13.656Z,35.15
2022-12-22T17:11:40.396Z,35.03
2022-12-22T17:14:17.120Z,34.97
2022-12-22T17:16:43.732Z,34.82
2022-12-22T17:19:11.492Z,34.62
2022-12-22T17:21:38.280Z,34.90
2022-12-22T17:24:05.090Z,34.86
2022-12-22T17:26:34.331Z,34.97
2022-12-22T17:29:01.508Z,34.51
2022-12-22T17:31:28.186Z,34.83
2022-12-22T17:33:54.790Z,34.72
2022-12-22T17:36:24.022Z,34.67
2022-12-22T17:38:50.597Z,34.85
2022-12-22T17:41:17.576Z,34.56
2022-12-22T17:43:44.206Z,34.47
2022-12-22T17:46:15.126Z,34.79
2022-12-22T17:48:42.419Z,34.50
2022-12-22T17:51:22.978Z,34.65
2022-12-22T17:53:50.015Z,34.60
2022-12-22T17:56:22.398Z,34.41
2022-12-22T17:58:49.710Z,34.64
2022-12-22T18:01:19.204Z,34.47
2022-12-22T18:03:45.937Z,34.56
2022-12-22T18:06:18.039Z,34.57
2022-12-22T18:08:45.435Z,34.54
2022-12-22T18:11:12.924Z,34.54
2022-12-22T18:13:40.329Z,34.35
2022-12-22T18:16:08.898Z,34.39
2022-12-22T18:18:35.650Z,34.14
2022-12-22T18:21:05.697Z,34.08
2022-12-22T18:23:35.885Z,34.19
2022-12-22T18:26:04.980Z,34.24
2022-12-22T18:28:31.554Z,34.00
2022-12-22T18:30:58.046Z,34.33
2022-12-22T18:33:24.641Z,33.93
2022-12-22T18:35:53.733Z,34.03
2022-12-22T18:38:27.377Z,34.14
2022-12-22T18:40:54.970Z,34.20
2022-12-22T18:43:22.119Z,33.96
2022-12-22T18:45:49.253Z,34.30
2022-12-22T18:48:16.169Z,34.04
2022-12-22T18:50:43.003Z,34.08
2022-12-22T18:53:30.508Z,33.74
2022-12-22T18:55:57.678Z,33.83
2022-12-22T18:58:25.308Z,33.91
2022-12-22T19:00:54.871Z,33.96
2022-12-22T19:03:24.228Z,33.77
2022-12-22T19:05:51.485Z,33.96
2022-12-22T19:08:25.817Z,33.77
2022-12-22T19:10:57.914Z,33.82
2022-12-22T19:13:30.939Z,33.74
2022-12-22T19:15:58.311Z,33.91
2022-12-22T19:18:27.544Z,33.81
2022-12-22T19:20:55.796Z,34.10
2022-12-22T19:23:24.270Z,34.09
2022-12-22T19:26:08.127Z,34.05
2022-12-22T19:28:39.603Z,34.40
2022-12-22T19:31:10.453Z,34.06
2022-12-22T19:33:41.411Z,33.91
2022-12-22T19:36:16.478Z,34.05
2022-12-22T19:38:49.891Z,34.15
2022-12-22T19:41:42.151Z,33.98
2022-12-22T19:44:16.354Z,34.16
2022-12-22T19:46:43.000Z,33.97
2022-12-22T19:49:16.114Z,34.11
2022-12-22T19:51:42.742Z,34.00
2022-12-22T19:54:12.747Z,34.11
2022-12-22T19:56:42.519Z,33.88
2022-12-22T19:59:26.265Z,33.96
2022-12-22T20:01:56.044Z,33.81
2022-12-22T20:04:22.781Z,33.73
2022-12-22T20:06:49.343Z,34.00
2022-12-22T20:09:15.848Z,33.76
2022-12-22T20:11:43.715Z,33.94
2022-12-22T20:14:18.531Z,33.70
2022-12-22T20:16:46.319Z,33.69
2022-12-22T20:19:15.297Z,33.91
2022-12-22T20:21:42.858Z,33.81
2022-12-22T20:24:20.289Z,33.69
2022-12-22T20:26:53.524Z,33.60
2022-12-22T20:29:21.031Z,33.93
2022-12-22T20:31:48.690Z,33.79
2022-12-22T20:34:17.427Z,33.61
2022-12-22T20:36:44.394Z,33.71
2022-12-22T20:39:14.238Z,33.64
2022-12-22T20:41:43.366Z,33.88
2022-12-22T20:44:15.309Z,33.84
2022-12-22T20:46:41.886Z,33.70
2022-12-22T20:49:16.298Z,33.51
2022-12-22T20:51:43.371Z,33.84
2022-12-22T20:54:14.821Z,33.61
2022-12-22T20:56:43.828Z,33.82
2022-12-22T20:59:16.301Z,33.56
2022-12-22T21:01:43.373Z,33.75
2022-12-22T21:04:11.597Z,33.84
2022-12-22T21:06:42.648Z,33.85
2022-12-22T21:09:12.547Z,33.73
2022-12-22T21:11:39.173Z,33.86
2022-12-22T21:14:06.111Z,33.90
2022-12-22T21:16:34.196Z,33.93
2022-12-22T21:19:01.455Z,33.80
2022-12-22T21:21:28.377Z,33.85
2022-12-22T21:23:55.055Z,34.02
2022-12-22T21:26:24.706Z,34.21
2022-12-22T21:28:52.393Z,33.55
2022-12-22T21:31:19.205Z,33.68
2022-12-22T21:33:47.135Z,33.56
2022-12-22T21:36:22.611Z,33.64
2022-12-22T21:38:53.952Z,33.97
2022-12-22T21:41:40.965Z,34.07
2022-12-22T21:44:08.141Z,34.15
2022-12-22T21:46:35.181Z,34.51
2022-12-22T21:49:02.013Z,34.56
2022-12-22T21:51:28.531Z,34.50
2022-12-22T21:53:55.259Z,34.55
2022-12-22T21:56:21.928Z,34.98
2022-12-22T21:58:48.645Z,35.35
2022-12-22T22:01:16.234Z,34.84
2022-12-22T22:03:43.070Z,34.75
2022-12-22T22:06:09.570Z,34.73
2022-12-22T22:08:36.117Z,34.40
2022-12-22T22:11:02.664Z,34.34
2022-12-22T22:13:29.207Z,34.42
2022-12-22T22:15:55.745Z,34.16
2022-12-22T22:18:22.493Z,34.21
2022-12-22T22:20:51.173Z,34.03
2022-12-22T22:23:18.173Z,34.50
2022-12-22T22:25:44.751Z,34.20
2022-12-22T22:28:11.590Z,34.07
2022-12-22T22:30:40.251Z,33.97
2022-12-22T22:33:06.866Z,33.94
2022-12-22T22:35:33.365Z,33.89
2022-12-22T22:37:59.994Z,34.02
2022-12-22T22:40:26.581Z,34.12
2022-12-22T22:42:53.288Z,34.15
2022-12-22T22:45:23.195Z,33.89
2022-12-22T22:47:51.500Z,34.00
2022-12-22T22:50:20.225Z,34.05
2022-12-22T22:52:47.187Z,33.95
2022-12-22T22:55:14.501Z,34.09
2022-12-22T22:57:42.006Z,33.91
2022-12-22T23:00:14.706Z,33.71
2022-12-22T23:02:42.306Z,33.84
2022-12-22T23:05:12.164Z,33.67
2022-12-22T23:07:42.137Z,33.72
2022-12-22T23:10:09.350Z,33.84
2022-12-22T23:12:35.938Z,33.75
2022-12-22T23:15:02.502Z,33.81
2022-12-22T23:17:29.557Z,33.74
2022-12-22T23:19:56.477Z,33.78
2022-12-22T23:22:23.640Z,33.53
2022-12-22T23:24:50.178Z,33.59
2022-12-22T23:27:17.481Z,33.58
2022-12-22T23:29:44.077Z,33.66
2022-12-22T23:34:27.531Z,33.58
2022-12-22T23:36:54.366Z,33.42
2022-12-22T23:39:20.920Z,33.41
2022-12-22T23:41:47.494Z,33.38
2022-12-22T23:44:14.252Z,33.60
2022-12-22T23:46:41.434Z,33.59
2022-12-22T23:49:11.375Z,33.34
2022-12-22T23:51:38.583Z,33.65
2022-12-22T23:54:05.557Z,33.31
2022-12-22T23:56:32.592Z,33.47
2022-12-22T23:58:59.303Z,33.29
